Time;durP1;ratioP1;P1;durP2;ratioP2;P2;SDS_P1;SDS_P2;PMS_P1;PMS_P2;Temp;Humidity;BMP_temperature;BMP_pressure;BME280_temperature;BME280_humidity;BME280_pressure;Samples;Min_cycle;Max_cycle;Signal;HPM_P1;HPM_P2
2023/09/16 00:02:03;;;;;;;167.07;159.18;;;21.70;99.90;;;;;;5052925;28;20052;-71
2023/09/16 00:04:29;;;;;;;169.48;161.30;;;21.70;99.90;;;;;;5053956;28;20045;-71
2023/09/16 00:06:56;;;;;;;129.50;123.22;;;21.90;99.90;;;;;;5052999;28;20040;-72
2023/09/16 00:09:23;;;;;;;167.05;159.02;;;21.70;99.90;;;;;;5053916;28;20647;-72
2023/09/16 00:11:50;;;;;;;144.93;137.95;;;21.60;99.90;;;;;;5053301;28;20391;-71
2023/09/16 00:14:19;;;;;;;151.70;144.27;;;21.50;99.90;;;;;;5053418;28;20045;-71
2023/09/16 00:16:46;;;;;;;146.50;139.48;;;21.50;99.90;;;;;;5052740;28;20032;-72
2023/09/16 00:19:12;;;;;;;141.00;134.25;;;21.40;99.90;;;;;;5053630;28;20056;-72
2023/09/16 00:21:40;;;;;;;135.27;128.65;;;21.40;99.90;;;;;;5053333;28;20044;-71
2023/09/16 00:24:06;;;;;;;147.60;140.18;;;21.40;99.90;;;;;;5053663;28;20049;-71
2023/09/16 00:26:34;;;;;;;150.10;142.85;;;21.40;99.90;;;;;;5052981;28;20041;-71
2023/09/16 00:29:00;;;;;;;158.20;150.65;;;21.40;99.90;;;;;;5052015;28;20028;-71
2023/09/16 00:31:27;;;;;;;144.80;137.77;;;21.40;99.90;;;;;;5052297;28;20029;-71
2023/09/16 00:33:53;;;;;;;139.45;132.80;;;21.40;99.90;;;;;;5051668;28;20036;-71
2023/09/16 00:36:19;;;;;;;150.68;143.23;;;21.30;99.90;;;;;;5053191;28;20029;-71
2023/09/16 00:38:45;;;;;;;159.98;152.25;;;21.20;99.90;;;;;;5052983;28;20383;-71
2023/09/16 00:41:12;;;;;;;197.85;188.15;;;21.20;99.90;;;;;;5052357;28;20025;-71
2023/09/16 00:43:39;;;;;;;249.20;237.07;;;21.20;99.90;;;;;;5052865;28;20483;-71
2023/09/16 00:46:05;;;;;;;257.55;244.52;;;21.30;99.90;;;;;;5052435;28;20495;-71
2023/09/16 00:48:31;;;;;;;146.48;139.38;;;21.50;99.90;;;;;;5067992;28;20400;-71
2023/09/16 00:50:57;;;;;;;159.32;151.52;;;21.60;99.90;;;;;;5051406;28;20088;-74
2023/09/16 00:53:23;;;;;;;177.48;168.63;;;21.40;99.90;;;;;;5052907;28;20032;-71
2023/09/16 00:55:49;;;;;;;170.23;162.13;;;21.50;99.90;;;;;;5051259;28;20020;-71
2023/09/16 00:58:17;;;;;;;210.93;200.75;;;21.60;99.90;;;;;;5051566;28;20040;-72
2023/09/16 01:00:46;;;;;;;167.48;159.60;;;21.60;99.90;;;;;;5050793;28;20025;-71
2023/09/16 01:03:16;;;;;;;176.52;168.02;;;21.50;99.90;;;;;;5050734;28;20418;-71
2023/09/16 01:05:45;;;;;;;206.63;196.77;;;21.70;99.90;;;;;;5050947;28;20029;-71
2023/09/16 01:08:12;;;;;;;216.10;205.65;;;21.80;99.90;;;;;;5051490;28;20028;-71
2023/09/16 01:10:40;;;;;;;201.20;191.70;;;21.90;99.90;;;;;;5034630;28;20033;-72
2023/09/16 01:13:07;;;;;;;218.73;208.43;;;21.90;99.90;;;;;;5051523;28;20045;-71
2023/09/16 01:15:35;;;;;;;249.68;237.73;;;22.00;99.90;;;;;;5051905;28;20056;-71
2023/09/16 01:18:10;;;;;;;200.32;190.88;;;21.90;99.90;;;;;;5050957;28;20372;-71
2023/09/16 01:20:38;;;;;;;205.10;195.40;;;22.00;99.90;;;;;;5050805;28;20021;-71
2023/09/16 01:23:08;;;;;;;209.85;200.05;;;21.90;99.90;;;;;;5051208;28;20063;-71
2023/09/16 01:25:34;;;;;;;223.85;213.43;;;21.90;99.90;;;;;;5050641;28;20044;-72
2023/09/16 01:28:00;;;;;;;224.68;214.02;;;21.90;99.90;;;;;;5052787;28;20044;-71
2023/09/16 01:30:27;;;;;;;201.23;191.88;;;21.90;99.90;;;;;;5052056;28;20022;-71
2023/09/16 01:33:07;;;;;;;188.05;178.95;;;22.00;99.90;;;;;;5050662;28;20069;-72
2023/09/16 01:35:35;;;;;;;196.13;186.57;;;22.00;99.90;;;;;;5050727;28;20103;-71
2023/09/16 01:38:02;;;;;;;189.60;180.60;;;21.90;99.90;;;;;;5050775;28;20045;-72
2023/09/16 01:40:28;;;;;;;176.15;167.32;;;21.80;99.90;;;;;;5050258;28;20040;-71
2023/09/16 01:42:54;;;;;;;172.27;164.00;;;21.90;99.90;;;;;;5051113;28;20041;-71
2023/09/16 01:45:20;;;;;;;205.98;196.35;;;21.90;99.90;;;;;;5050542;28;20056;-71
2023/09/16 01:47:49;;;;;;;202.95;193.20;;;21.90;99.90;;;;;;5051761;28;20025;-72
2023/09/16 01:50:15;;;;;;;251.60;239.65;;;21.80;99.90;;;;;;5051605;28;20127;-72
2023/09/16 01:52:41;;;;;;;217.30;206.95;;;21.70;99.90;;;;;;5052236;28;20480;-71
2023/09/16 01:55:08;;;;;;;200.50;191.02;;;21.80;99.90;;;;;;5055162;28;20033;-71
2023/09/16 01:57:34;;;;;;;216.73;206.07;;;21.80;99.90;;;;;;5055988;28;20028;-71
2023/09/16 02:00:00;;;;;;;210.52;200.55;;;21.70;99.90;;;;;;5056160;28;20029;-71
2023/09/16 02:02:26;;;;;;;220.82;209.93;;;21.70;99.90;;;;;;5055324;28;20414;-72
2023/09/16 02:04:52;;;;;;;358.23;339.65;;;21.80;99.90;;;;;;5056171;28;20037;-71
2023/09/16 02:07:18;;;;;;;285.73;270.77;;;21.80;99.90;;;;;;5055759;28;20048;-71
2023/09/16 02:09:44;;;;;;;231.95;220.75;;;21.80;99.90;;;;;;5055958;28;20029;-72
2023/09/16 02:12:11;;;;;;;272.45;258.65;;;21.90;99.90;;;;;;5055474;28;20037;-71
2023/09/16 02:14:38;;;;;;;253.07;240.68;;;21.80;99.90;;;;;;5055398;28;20404;-71
2023/09/16 02:17:07;;;;;;;227.25;216.07;;;21.80;99.90;;;;;;5054636;28;20040;-72
2023/09/16 02:19:33;;;;;;;310.08;294.67;;;21.70;99.90;;;;;;5055711;28;20036;-72
2023/09/16 02:21:59;;;;;;;305.77;290.92;;;21.60;99.90;;;;;;5055311;28;20140;-71
2023/09/16 02:24:25;;;;;;;363.27;344.52;;;21.60;99.90;;;;;;5055575;28;20092;-72
2023/09/16 02:26:51;;;;;;;336.13;319.60;;;21.60;99.90;;;;;;5055110;28;20041;-72
2023/09/16 02:29:17;;;;;;;236.20;225.05;;;21.60;99.90;;;;;;5055620;28;20029;-71
2023/09/16 02:31:43;;;;;;;317.80;302.02;;;21.50;99.90;;;;;;5054290;28;20044;-72
2023/09/16 02:34:09;;;;;;;315.70;299.98;;;21.50;99.90;;;;;;5055511;28;20036;-71
2023/09/16 02:36:37;;;;;;;295.02;280.23;;;21.40;99.90;;;;;;5054952;28;20471;-71
2023/09/16 02:39:03;;;;;;;353.17;333.63;;;21.50;99.90;;;;;;5055535;28;20041;-72
2023/09/16 02:41:30;;;;;;;244.57;232.90;;;21.40;99.90;;;;;;5054920;28;20444;-71
2023/09/16 02:43:56;;;;;;;272.10;258.88;;;21.40;99.90;;;;;;5055312;28;20072;-71
2023/09/16 02:46:22;;;;;;;228.23;217.38;;;21.40;99.90;;;;;;5054050;28;20074;-72
2023/09/16 02:48:48;;;;;;;237.75;226.27;;;21.40;99.90;;;;;;5055229;28;20025;-72
2023/09/16 02:51:14;;;;;;;261.27;248.02;;;21.30;99.90;;;;;;5053667;28;20037;-71
2023/09/16 02:53:40;;;;;;;202.55;192.68;;;21.20;99.90;;;;;;5055091;28;20028;-72
2023/09/16 02:56:09;;;;;;;186.82;177.60;;;21.30;99.90;;;;;;5054796;28;20036;-71
2023/09/16 02:58:36;;;;;;;192.98;183.50;;;21.30;99.90;;;;;;5070392;28;20033;-72
2023/09/16 03:01:09;;;;;;;210.32;200.27;;;21.30;99.90;;;;;;5053785;28;20419;-72
2023/09/16 03:03:36;;;;;;;272.60;258.75;;;21.30;99.90;;;;;;5055175;28;20475;-71
2023/09/16 03:06:02;;;;;;;231.15;220.07;;;21.20;99.90;;;;;;5054459;28;20071;-71
2023/09/16 03:08:29;;;;;;;237.45;226.02;;;21.30;99.90;;;;;;5054837;28;20033;-71
2023/09/16 03:11:04;;;;;;;279.55;265.52;;;21.30;99.90;;;;;;5054399;28;20471;-72
2023/09/16 03:13:30;;;;;;;240.75;228.98;;;21.40;99.90;;;;;;5054874;28;20033;-72
2023/09/16 03:16:16;;;;;;;252.52;240.30;;;21.40;99.90;;;;;;5053715;28;20029;-71
2023/09/16 03:18:44;;;;;;;233.55;222.35;;;21.40;99.90;;;;;;5054964;28;20053;-71
2023/09/16 03:21:10;;;;;;;268.55;255.00;;;21.30;99.90;;;;;;5053226;28;20112;-71
2023/09/16 03:23:36;;;;;;;228.68;217.45;;;21.30;99.90;;;;;;5054696;28;20036;-71
2023/09/16 03:26:02;;;;;;;228.93;217.88;;;21.30;99.90;;;;;;5069192;28;20052;-72
2023/09/16 03:28:28;;;;;;;236.93;224.65;;;21.20;99.90;;;;;;5054302;28;20036;-71
2023/09/16 03:30:54;;;;;;;107.10;101.80;;;21.30;99.90;;;;;;5053673;28;20029;-71
2023/09/16 03:33:20;;;;;;;102.10;97.07;;;21.10;99.90;;;;;;5054322;28;20025;-72
2023/09/16 03:35:46;;;;;;;113.43;107.32;;;21.00;99.90;;;;;;5053970;28;20033;-72
2023/09/16 03:38:12;;;;;;;103.35;98.25;;;20.80;99.90;;;;;;5054185;28;20033;-71
2023/09/16 03:40:39;;;;;;;107.30;101.90;;;20.80;99.90;;;;;;5053813;28;20028;-71
2023/09/16 03:43:05;;;;;;;171.20;162.88;;;20.80;99.90;;;;;;5054126;28;20048;-72
2023/09/16 03:45:31;;;;;;;161.13;153.18;;;20.90;99.90;;;;;;5052104;28;20037;-72
2023/09/16 03:47:57;;;;;;;146.35;139.13;;;20.90;99.90;;;;;;5054133;28;20036;-72
2023/09/16 03:50:23;;;;;;;132.23;125.43;;;21.00;99.90;;;;;;5053803;28;20021;-72
2023/09/16 03:52:49;;;;;;;67.30;63.78;;;21.00;99.90;;;;;;5052915;28;20059;-72
2023/09/16 03:55:15;;;;;;;116.28;110.25;;;21.00;99.90;;;;;;5035738;28;20041;-72
2023/09/16 03:57:41;;;;;;;177.95;169.00;;;21.00;99.90;;;;;;5053718;28;20463;-72
2023/09/16 04:00:10;;;;;;;144.95;137.63;;;21.10;99.90;;;;;;5053187;28;20037;-71
2023/09/16 04:02:38;;;;;;;154.38;146.43;;;21.10;99.90;;;;;;5053841;28;20400;-72
2023/09/16 04:05:05;;;;;;;178.45;169.50;;;21.00;99.90;;;;;;5053734;28;20036;-72
2023/09/16 04:07:31;;;;;;;116.15;110.28;;;21.10;99.90;;;;;;5053730;28;20387;-72
2023/09/16 04:09:58;;;;;;;112.13;106.15;;;21.10;99.90;;;;;;5052102;28;20037;-72
2023/09/16 04:12:24;;;;;;;68.95;65.20;;;21.00;99.90;;;;;;5052810;28;20037;-72
2023/09/16 04:14:50;;;;;;;139.73;132.43;;;21.00;99.90;;;;;;5053540;28;20052;-72
2023/09/16 04:17:16;;;;;;;136.23;129.40;;;21.00;99.90;;;;;;5050866;28;20040;-72
2023/09/16 04:19:42;;;;;;;127.10;120.53;;;21.10;99.90;;;;;;5053704;28;20037;-72
2023/09/16 04:22:08;;;;;;;86.70;82.40;;;21.10;99.90;;;;;;5052930;28;20036;-72
2023/09/16 04:24:34;;;;;;;112.13;106.32;;;21.10;99.90;;;;;;5053556;28;20480;-72
2023/09/16 04:27:00;;;;;;;100.45;95.15;;;21.10;99.90;;;;;;5052780;28;20040;-72
2023/09/16 04:29:26;;;;;;;101.72;96.65;;;21.10;99.90;;;;;;5052365;28;20391;-72
2023/09/16 04:31:52;;;;;;;122.00;115.68;;;21.10;99.90;;;;;;5052658;28;20041;-72
2023/09/16 04:34:19;;;;;;;141.85;134.52;;;21.10;99.90;;;;;;5053259;28;20380;-73
2023/09/16 04:36:45;;;;;;;148.77;140.98;;;21.10;99.90;;;;;;5053057;28;20045;-72
2023/09/16 04:39:11;;;;;;;158.63;150.40;;;21.20;99.90;;;;;;5052987;28;20029;-72
2023/09/16 04:41:37;;;;;;;157.13;149.20;;;21.20;99.90;;;;;;5052252;28;20029;-72
2023/09/16 04:44:08;;;;;;;109.30;103.65;;;21.10;99.90;;;;;;5053102;28;20029;-72
2023/09/16 04:46:34;;;;;;;99.80;94.45;;;21.20;99.90;;;;;;5052380;28;20407;-72
2023/09/16 04:49:00;;;;;;;169.70;161.07;;;21.10;99.90;;;;;;5052981;28;20029;-72
2023/09/16 04:51:26;;;;;;;162.00;153.75;;;21.10;99.90;;;;;;5052469;28;20029;-72
2023/09/16 04:53:54;;;;;;;105.00;99.85;;;21.10;99.90;;;;;;5052857;28;20049;-72
2023/09/16 04:56:21;;;;;;;89.53;84.90;;;21.00;99.90;;;;;;5052302;28;20048;-72
2023/09/16 04:58:49;;;;;;;180.43;171.55;;;20.90;99.90;;;;;;5052808;28;20033;-72
2023/09/16 05:01:15;;;;;;;72.60;68.97;;;21.00;99.90;;;;;;5052153;28;20032;-72
2023/09/16 05:03:41;;;;;;;103.40;97.97;;;21.00;99.90;;;;;;5052687;28;20379;-72
2023/09/16 05:06:07;;;;;;;128.65;121.95;;;21.00;99.90;;;;;;5052205;28;20037;-72
2023/09/16 05:08:33;;;;;;;169.75;161.20;;;20.90;99.90;;;;;;5052635;28;20387;-72
2023/09/16 05:10:59;;;;;;;197.30;187.27;;;20.90;99.90;;;;;;5051718;28;20029;-72
2023/09/16 05:13:26;;;;;;;161.63;153.38;;;20.90;99.90;;;;;;5052334;28;20024;-72
2023/09/16 05:15:52;;;;;;;192.40;182.48;;;20.90;99.90;;;;;;5051841;28;20025;-72
2023/09/16 05:18:18;;;;;;;145.85;138.45;;;20.90;99.90;;;;;;5052470;28;20037;-72
2023/09/16 05:20:45;;;;;;;176.90;167.70;;;20.80;99.90;;;;;;5052160;28;20025;-72
2023/09/16 05:23:14;;;;;;;149.93;142.52;;;20.80;99.90;;;;;;5052352;28;20033;-72
2023/09/16 05:25:47;;;;;;;147.15;139.57;;;20.90;99.90;;;;;;5051755;28;20045;-72
2023/09/16 05:28:13;;;;;;;109.63;104.10;;;20.90;99.90;;;;;;5052500;28;20045;-72
2023/09/16 05:30:39;;;;;;;129.77;123.32;;;20.90;99.90;;;;;;5051600;28;20040;-72
2023/09/16 05:33:05;;;;;;;114.55;108.82;;;20.90;99.90;;;;;;5034663;28;20048;-72
2023/09/16 05:35:31;;;;;;;109.63;104.03;;;20.90;99.90;;;;;;5051746;28;20471;-72
2023/09/16 05:37:57;;;;;;;118.88;112.70;;;20.80;99.90;;;;;;5052168;28;20044;-72
2023/09/16 05:40:24;;;;;;;142.00;134.48;;;20.90;99.90;;;;;;5051522;28;20021;-73
2023/09/16 05:42:50;;;;;;;139.98;133.00;;;20.90;99.90;;;;;;5050759;28;20044;-72
2023/09/16 05:45:16;;;;;;;137.43;130.30;;;20.90;99.90;;;;;;5050774;28;20037;-72
2023/09/16 05:47:45;;;;;;;149.38;141.73;;;21.00;99.90;;;;;;5052122;28;20039;-72
2023/09/16 05:50:12;;;;;;;145.88;138.57;;;20.90;99.90;;;;;;5051828;28;20037;-72
2023/09/16 05:52:38;;;;;;;155.57;147.50;;;20.80;99.90;;;;;;5050504;28;20033;-72
2023/09/16 05:55:05;;;;;;;125.30;119.03;;;20.80;99.90;;;;;;5052057;28;20025;-72
2023/09/16 05:57:31;;;;;;;126.57;120.10;;;20.90;99.90;;;;;;5051788;28;20037;-72
2023/09/16 05:59:57;;;;;;;126.65;120.10;;;20.90;99.90;;;;;;5051874;28;20468;-72
2023/09/16 06:02:23;;;;;;;143.45;136.10;;;21.00;99.90;;;;;;5051188;28;20052;-72
2023/09/16 06:04:49;;;;;;;131.35;124.85;;;21.00;99.90;;;;;;5051927;28;20029;-72
2023/09/16 06:07:16;;;;;;;117.47;111.63;;;20.90;99.90;;;;;;5051062;28;20057;-72
2023/09/16 06:09:42;;;;;;;120.32;114.25;;;20.80;99.90;;;;;;5052043;28;20032;-72
2023/09/16 06:12:08;;;;;;;106.72;101.45;;;20.60;99.90;;;;;;5051499;28;20399;-73
2023/09/16 06:14:35;;;;;;;91.80;86.78;;;20.60;99.90;;;;;;5051710;28;20060;-72
2023/09/16 06:17:01;;;;;;;98.72;93.57;;;20.30;99.90;;;;;;5051176;28;20037;-72
2023/09/16 06:19:27;;;;;;;89.10;84.53;;;20.00;99.90;;;;;;5051732;28;20029;-72
2023/09/16 06:21:54;;;;;;;96.65;91.57;;;20.00;99.90;;;;;;5050968;28;20036;-71
2023/09/16 06:24:21;;;;;;;109.18;103.53;;;20.00;99.90;;;;;;5051773;28;20029;-72
2023/09/16 06:26:47;;;;;;;56.78;53.78;;;20.10;99.90;;;;;;5033224;28;20053;-72
2023/09/16 06:29:13;;;;;;;126.75;120.45;;;20.30;99.90;;;;;;5051752;28;20087;-71
2023/09/16 06:31:39;;;;;;;100.65;95.63;;;20.20;99.90;;;;;;5050843;28;20041;-72
2023/09/16 06:34:05;;;;;;;88.05;83.47;;;20.30;99.90;;;;;;5050450;28;20364;-72
2023/09/16 06:36:32;;;;;;;99.15;94.25;;;20.40;99.90;;;;;;5046754;28;20036;-72
2023/09/16 06:38:59;;;;;;;106.95;101.45;;;20.60;99.90;;;;;;5032403;28;20030;-72
2023/09/16 06:41:26;;;;;;;124.10;117.90;;;20.70;99.90;;;;;;5053645;28;20421;-72
2023/09/16 06:43:52;;;;;;;136.07;129.40;;;20.70;99.90;;;;;;5055340;28;20024;-72
2023/09/16 06:46:18;;;;;;;137.68;130.82;;;20.80;99.90;;;;;;5054541;28;20045;-72
2023/09/16 06:48:45;;;;;;;122.07;116.05;;;20.90;99.90;;;;;;5055188;28;20478;-72
2023/09/16 06:51:11;;;;;;;120.43;114.47;;;21.10;99.90;;;;;;5054920;28;20053;-72
2023/09/16 06:53:37;;;;;;;139.13;132.18;;;21.10;99.90;;;;;;5055301;28;20416;-72
2023/09/16 06:56:03;;;;;;;130.32;123.88;;;21.20;99.90;;;;;;5054604;28;20043;-72
2023/09/16 06:58:30;;;;;;;132.93;126.40;;;21.20;99.90;;;;;;5053934;28;20029;-72
2023/09/16 07:00:56;;;;;;;137.43;130.75;;;21.30;99.90;;;;;;5052884;28;20036;-72
2023/09/16 07:03:22;;;;;;;137.70;130.85;;;21.30;99.90;;;;;;5054985;28;20033;-72
2023/09/16 07:05:48;;;;;;;124.07;117.93;;;21.30;99.90;;;;;;5054138;28;20025;-71
2023/09/16 07:08:15;;;;;;;116.80;110.85;;;21.30;99.90;;;;;;5054865;28;20033;-72
2023/09/16 07:10:41;;;;;;;138.60;131.50;;;21.40;99.90;;;;;;5054759;28;20498;-71
2023/09/16 07:13:07;;;;;;;119.32;113.43;;;21.40;99.90;;;;;;5054812;28;20080;-72
2023/09/16 07:15:35;;;;;;;129.40;123.15;;;21.30;99.90;;;;;;5033962;28;20042;-72
2023/09/16 07:18:01;;;;;;;169.40;160.80;;;21.40;99.90;;;;;;5034987;28;20053;-72
2023/09/16 07:20:28;;;;;;;158.57;150.90;;;21.30;99.90;;;;;;5034156;28;20384;-72
2023/09/16 07:22:55;;;;;;;132.43;126.00;;;21.40;99.90;;;;;;5034654;28;20467;-71
2023/09/16 07:25:22;;;;;;;127.50;121.28;;;21.40;99.90;;;;;;5034300;28;20045;-72
2023/09/16 07:27:48;;;;;;;174.25;165.93;;;21.40;99.90;;;;;;5034660;28;20034;-71
2023/09/16 07:30:17;;;;;;;196.25;186.93;;;21.40;99.90;;;;;;5033522;28;20036;-72
2023/09/16 07:32:43;;;;;;;170.13;161.77;;;21.50;99.90;;;;;;5034606;28;20042;-73
2023/09/16 07:35:09;;;;;;;160.57;152.65;;;21.50;99.90;;;;;;5034281;28;20487;-72
2023/09/16 07:37:35;;;;;;;195.70;186.15;;;21.50;99.90;;;;;;5032959;28;20049;-71
2023/09/16 07:40:01;;;;;;;176.10;167.55;;;21.60;99.90;;;;;;5034421;28;20380;-71
2023/09/16 07:42:27;;;;;;;180.15;171.38;;;21.60;99.90;;;;;;5033982;28;20060;-72
2023/09/16 07:44:53;;;;;;;180.10;171.32;;;21.50;99.90;;;;;;5034010;28;20041;-72
2023/09/16 07:47:20;;;;;;;184.77;175.52;;;21.50;99.90;;;;;;5033360;28;20045;-71
2023/09/16 07:49:46;;;;;;;193.43;184.10;;;21.50;99.90;;;;;;5033854;28;20033;-73
2023/09/16 07:52:12;;;;;;;245.45;233.38;;;21.50;99.90;;;;;;5032543;28;20041;-72
2023/09/16 07:54:38;;;;;;;242.38;230.43;;;21.50;99.90;;;;;;5034056;28;20464;-72
2023/09/16 07:57:04;;;;;;;292.80;278.15;;;21.50;99.90;;;;;;5033359;28;20499;-72
2023/09/16 07:59:30;;;;;;;235.25;224.07;;;21.50;99.90;;;;;;5034146;28;20041;-72
2023/09/16 08:01:56;;;;;;;286.83;272.95;;;21.50;99.90;;;;;;5033093;28;20037;-72
2023/09/16 08:04:22;;;;;;;279.70;265.98;;;21.50;99.90;;;;;;5033246;28;20084;-72
2023/09/16 08:06:49;;;;;;;305.55;290.73;;;21.50;99.90;;;;;;5033513;28;20064;-72
2023/09/16 08:09:16;;;;;;;302.92;288.17;;;21.60;99.90;;;;;;5033488;28;20096;-72
2023/09/16 08:11:42;;;;;;;212.23;202.23;;;21.60;99.90;;;;;;5033510;28;20029;-72
2023/09/16 08:14:09;;;;;;;303.42;288.65;;;21.50;99.90;;;;;;5042072;28;20060;-72
2023/09/16 08:16:35;;;;;;;223.63;212.90;;;21.60;99.90;;;;;;5052553;28;20037;-73
2023/09/16 08:19:01;;;;;;;247.48;235.75;;;21.60;99.90;;;;;;5053307;28;20032;-72
2023/09/16 08:21:27;;;;;;;240.20;228.70;;;21.70;99.90;;;;;;5053104;28;20037;-72
2023/09/16 08:23:53;;;;;;;231.20;220.27;;;21.80;99.90;;;;;;5053376;28;20036;-72
2023/09/16 08:26:19;;;;;;;267.05;254.27;;;21.80;99.90;;;;;;5053219;28;20033;-73
2023/09/16 08:28:47;;;;;;;522.20;494.13;;;21.80;99.90;;;;;;5053606;28;20055;-72
2023/09/16 08:31:13;;;;;;;352.60;335.33;;;21.70;99.90;;;;;;5052725;28;20033;-72
2023/09/16 08:33:39;;;;;;;495.63;469.70;;;21.70;99.90;;;;;;5053123;28;20471;-75
2023/09/16 08:36:05;;;;;;;186.57;177.27;;;21.80;99.90;;;;;;5052095;28;20025;-72
2023/09/16 08:38:31;;;;;;;162.07;154.02;;;22.00;99.90;;;;;;5033365;28;20030;-71
2023/09/16 08:41:21;;;;;;;155.75;147.85;;;22.10;99.90;;;;;;5049993;28;20036;-72
2023/09/16 08:43:47;;;;;;;189.13;179.53;;;22.10;99.90;;;;;;5046354;28;20056;-72
2023/09/16 08:46:15;;;;;;;164.07;156.13;;;22.30;99.90;;;;;;5050856;28;20773;-72
2023/09/16 08:48:42;;;;;;;237.13;225.98;;;22.40;99.90;;;;;;5052612;28;20048;-72
2023/09/16 08:51:09;;;;;;;309.90;295.05;;;22.40;99.90;;;;;;5051371;28;20033;-72
2023/09/16 08:53:36;;;;;;;190.70;181.32;;;22.40;99.90;;;;;;5051815;28;20040;-72
2023/09/16 08:56:02;;;;;;;192.70;183.35;;;22.40;99.90;;;;;;5051242;28;20021;-72
2023/09/16 08:58:32;;;;;;;193.07;183.55;;;22.50;99.90;;;;;;5051711;28;20032;-72
2023/09/16 09:00:58;;;;;;;392.75;373.63;;;22.60;99.90;;;;;;5052074;28;20029;-72
2023/09/16 09:03:24;;;;;;;291.15;277.17;;;22.70;99.90;;;;;;5052041;28;20047;-75
2023/09/16 09:05:52;;;;;;;214.00;203.77;;;22.80;99.90;;;;;;5050963;28;20036;-72
2023/09/16 09:08:19;;;;;;;222.00;211.38;;;22.90;99.90;;;;;;5053018;28;20064;-72
2023/09/16 09:10:45;;;;;;;193.48;184.10;;;22.90;99.90;;;;;;5052903;28;20060;-72
2023/09/16 09:13:12;;;;;;;226.18;215.38;;;22.90;99.90;;;;;;5051198;28;20046;-72
2023/09/16 09:15:42;;;;;;;239.20;227.95;;;22.90;99.90;;;;;;5051344;28;20411;-73
2023/09/16 09:18:08;;;;;;;220.60;209.45;;;23.00;99.90;;;;;;5052440;28;20033;-73
2023/09/16 09:20:34;;;;;;;216.88;206.32;;;22.80;99.90;;;;;;5050892;28;20029;-72
2023/09/16 09:23:01;;;;;;;426.42;404.92;;;22.80;99.90;;;;;;5052440;28;20039;-72
2023/09/16 09:25:27;;;;;;;396.42;376.83;;;22.70;99.90;;;;;;5051654;28;20040;-72
2023/09/16 09:27:54;;;;;;;447.65;425.30;;;22.80;99.90;;;;;;5052292;28;20041;-72
2023/09/16 09:30:26;;;;;;;397.48;377.63;;;22.90;99.90;;;;;;5066454;28;20037;-72
2023/09/16 09:32:56;;;;;;;348.77;331.13;;;23.10;99.90;;;;;;5051105;28;20340;-72
2023/09/16 09:35:22;;;;;;;326.33;310.52;;;23.10;99.90;;;;;;5051906;28;20021;-73
2023/09/16 09:37:49;;;;;;;321.63;306.13;;;23.20;99.90;;;;;;5052644;28;20041;-72
2023/09/16 09:40:15;;;;;;;403.58;383.23;;;23.20;99.90;;;;;;5051592;28;20040;-72
2023/09/16 09:42:51;;;;;;;226.32;215.63;;;23.30;99.90;;;;;;5051985;28;20467;-72
2023/09/16 09:45:19;;;;;;;310.00;294.98;;;23.40;99.90;;;;;;5049752;28;20037;-73
2023/09/16 09:47:46;;;;;;;320.00;304.70;;;23.50;99.90;;;;;;5050860;28;20037;-72
2023/09/16 09:50:13;;;;;;;336.08;319.48;;;23.50;99.90;;;;;;5051625;28;20468;-74
2023/09/16 09:52:54;;;;;;;226.73;215.80;;;23.60;99.90;;;;;;5052023;28;20029;-74
2023/09/16 09:55:24;;;;;;;367.00;348.67;;;23.70;99.90;;;;;;5051926;28;20033;-75
2023/09/16 09:57:51;;;;;;;403.85;382.98;;;23.40;99.90;;;;;;5051997;28;20029;-74
2023/09/16 10:00:18;;;;;;;407.48;386.90;;;23.40;99.90;;;;;;5049699;28;20028;-74
2023/09/16 10:02:44;;;;;;;411.15;390.13;;;23.50;99.90;;;;;;5051908;28;20033;-74
2023/09/16 10:05:20;;;;;;;278.23;264.70;;;23.60;99.90;;;;;;5050252;28;20049;-74
2023/09/16 10:07:46;;;;;;;352.50;334.65;;;23.60;99.90;;;;;;5052068;28;20045;-74
2023/09/16 10:10:13;;;;;;;318.63;303.15;;;23.60;99.90;;;;;;5050548;28;20033;-74
2023/09/16 10:12:40;;;;;;;345.73;328.75;;;23.70;99.90;;;;;;5050818;28;20048;-74
2023/09/16 10:15:07;;;;;;;241.95;230.07;;;23.80;99.90;;;;;;5034305;28;20041;-74
2023/09/16 10:17:33;;;;;;;238.52;227.00;;;23.80;99.90;;;;;;5056106;28;20049;-75
2023/09/16 10:19:59;;;;;;;270.90;257.73;;;23.90;99.90;;;;;;5054615;28;20468;-72
2023/09/16 10:22:25;;;;;;;473.85;449.00;;;24.10;99.90;;;;;;5054151;28;20033;-72
2023/09/16 10:24:52;;;;;;;335.17;318.02;;;24.00;99.90;;;;;;5054569;28;20406;-74
2023/09/16 10:27:21;;;;;;;322.27;305.83;;;24.00;99.90;;;;;;5054022;28;20037;-75
2023/09/16 10:29:49;;;;;;;500.23;474.10;;;24.20;99.90;;;;;;5054294;28;20032;-72
2023/09/16 10:32:16;;;;;;;511.63;483.25;;;24.10;99.90;;;;;;5053749;28;20033;-71
2023/09/16 10:34:44;;;;;;;450.65;426.92;;;24.00;99.90;;;;;;5055562;28;20029;-72
2023/09/16 10:37:10;;;;;;;495.33;468.75;;;24.10;99.90;;;;;;5044271;28;20066;-72
2023/09/16 10:39:38;;;;;;;483.02;456.20;;;24.20;99.90;;;;;;5040533;28;20041;-72
2023/09/16 10:42:04;;;;;;;418.52;396.42;;;24.20;99.90;;;;;;5053688;28;20400;-72
2023/09/16 10:44:30;;;;;;;530.60;501.48;;;24.30;99.90;;;;;;5053914;28;20376;-74
2023/09/16 10:46:56;;;;;;;507.85;480.10;;;24.40;99.90;;;;;;5053260;28;20040;-75
2023/09/16 10:49:22;;;;;;;599.70;564.42;;;24.60;99.90;;;;;;5054182;28;20021;-74
2023/09/16 10:51:49;;;;;;;619.42;582.63;;;24.60;99.90;;;;;;5054828;28;20040;-74
2023/09/16 10:54:20;;;;;;;526.42;496.85;;;24.70;99.90;;;;;;5053948;28;20104;-74
2023/09/16 10:56:47;;;;;;;460.58;435.55;;;24.60;99.90;;;;;;5054849;28;20052;-73
2023/09/16 10:59:13;;;;;;;656.70;616.17;;;24.70;99.90;;;;;;5053643;28;20029;-73
2023/09/16 11:01:51;;;;;;;444.15;419.60;;;24.80;99.90;;;;;;5053315;28;20040;-73
2023/09/16 11:04:18;;;;;;;359.92;341.10;;;24.80;99.90;;;;;;5055099;28;20028;-73
2023/09/16 11:06:48;;;;;;;352.23;333.80;;;24.80;99.90;;;;;;5069649;28;20045;-73
2023/09/16 11:09:15;;;;;;;386.92;366.88;;;24.80;99.90;;;;;;5055238;28;20052;-73
2023/09/16 11:11:41;;;;;;;360.92;342.00;;;24.80;99.90;;;;;;5052880;28;20033;-73
2023/09/16 11:14:07;;;;;;;649.10;609.20;;;24.80;99.90;;;;;;5053598;28;20056;-74
2023/09/16 11:16:52;;;;;;;694.67;650.67;;;24.90;99.90;;;;;;5052846;28;20384;-73
2023/09/16 11:19:23;;;;;;;656.28;615.13;;;24.90;99.90;;;;;;5054940;28;20052;-74
2023/09/16 11:21:50;;;;;;;305.83;290.60;;;25.00;99.90;;;;;;5054437;28;20488;-72
2023/09/16 11:24:16;;;;;;;308.55;293.40;;;25.10;99.90;;;;;;5054471;28;20044;-73
2023/09/16 11:26:45;;;;;;;288.13;273.75;;;25.10;99.90;;;;;;5054030;28;20029;-73
2023/09/16 11:29:16;;;;;;;577.60;543.00;;;24.90;99.90;;;;;;5053306;28;20032;-73
2023/09/16 11:31:42;;;;;;;;;;;25.10;99.90;;;;;;5052605;28;20040;-73
2023/09/16 11:34:10;;;;;;;608.42;570.92;;;25.20;99.90;;;;;;5054752;28;19928;-73
2023/09/16 11:36:36;;;;;;;678.88;635.63;;;25.30;99.90;;;;;;5052986;28;20037;-73
2023/09/16 11:39:10;;;;;;;648.78;608.30;;;25.40;99.90;;;;;;5054324;28;20479;-74
2023/09/16 11:41:36;;;;;;;696.38;651.47;;;25.40;99.90;;;;;;5053695;28;20052;-74
2023/09/16 11:44:02;;;;;;;606.63;569.45;;;25.40;99.90;;;;;;5054183;28;20032;-73
2023/09/16 11:46:29;;;;;;;551.17;518.53;;;25.50;99.90;;;;;;5052471;28;20051;-72
2023/09/16 11:48:57;;;;;;;691.30;646.42;;;25.50;99.90;;;;;;5054019;28;20091;-73
2023/09/16 11:51:24;;;;;;;639.05;598.92;;;25.60;99.90;;;;;;5054003;28;20045;-73
2023/09/16 11:53:51;;;;;;;735.55;686.67;;;25.70;99.90;;;;;;5054570;28;20392;-74
2023/09/16 11:56:18;;;;;;;414.95;392.45;;;25.70;99.90;;;;;;5053535;28;20506;-74
2023/09/16 11:58:44;;;;;;;424.73;401.83;;;25.80;99.90;;;;;;5052882;28;20456;-74
2023/09/16 12:01:11;;;;;;;330.35;313.65;;;25.70;99.90;;;;;;5052111;28;20059;-74
2023/09/16 12:03:39;;;;;;;390.58;370.05;;;25.70;99.90;;;;;;5052102;28;20041;-74
2023/09/16 12:06:05;;;;;;;447.02;423.05;;;25.50;99.90;;;;;;5053513;28;20033;-74
2023/09/16 12:08:31;;;;;;;399.00;377.80;;;25.40;99.90;;;;;;5053819;28;20037;-74